Time;durP1;ratioP1;P1;durP2;ratioP2;P2;SDS_P1;SDS_P2;PMS_P1;PMS_P2;Temp;Humidity;BMP_temperature;BMP_pressure;BME280_temperature;BME280_humidity;BME280_pressure;Samples;Min_cycle;Max_cycle;Signal;HPM_P1;HPM_P2
2023/01/17 00:00:05;;;;;;;0.98;0.98;;;2.50;99.90;;;;;;4965295;28;20049;-33
2023/01/17 00:02:32;;;;;;;0.93;0.93;;;2.40;99.90;;;;;;4961291;28;20047;-33
2023/01/17 00:10:32;;;;;;;1.00;1.00;;;2.30;99.90;;;;;;4941684;29;20066;-33
2023/01/17 00:13:02;;;;;;;0.80;0.80;;;2.40;99.90;;;;;;4946518;29;20062;-33
2023/01/17 00:15:32;;;;;;;0.75;0.75;;;2.30;99.90;;;;;;4950002;28;20070;-33
2023/01/17 00:17:59;;;;;;;4.95;1.00;;;2.30;99.90;;;;;;4949169;28;20055;-33
2023/01/17 00:26:26;;;;;;;1.10;1.10;;;2.40;99.90;;;;;;4889346;29;20064;-33
2023/01/17 01:33:51;;;;;;;1.30;1.15;;;2.20;99.90;;;;;;4967644;28;20047;-33
2023/01/17 01:36:19;;;;;;;0.75;0.75;;;2.10;99.90;;;;;;4963039;28;20464;-33
2023/01/17 01:38:47;;;;;;;0.70;0.70;;;2.00;99.90;;;;;;4962578;28;20078;-33
2023/01/17 01:41:14;;;;;;;0.80;0.80;;;1.90;99.90;;;;;;4962372;28;20046;-33
2023/01/17 01:43:49;;;;;;;0.80;0.80;;;1.70;99.90;;;;;;4967881;28;20055;-33
2023/01/17 01:46:30;;;;;;;1.25;1.00;;;1.70;99.90;;;;;;4962757;28;20047;-33
2023/01/17 01:49:00;;;;;;;;;;;1.90;99.90;;;;;;4966719;28;20047;-33
2023/01/17 01:51:53;;;;;;;4.30;1.50;;;1.90;99.90;;;;;;4966969;28;19929;-33
2023/01/17 01:54:30;;;;;;;1.00;0.85;;;1.70;99.90;;;;;;4928689;28;20052;-33
2023/01/17 01:57:02;;;;;;;0.70;0.70;;;1.70;99.90;;;;;;4962321;28;20049;-33
2023/01/17 01:59:32;;;;;;;0.85;0.85;;;1.90;99.90;;;;;;4964970;28;20051;-33
2023/01/17 02:02:07;;;;;;;2.90;1.10;;;1.80;99.90;;;;;;4963670;28;20460;-33
2023/01/17 02:04:35;;;;;;;1.02;0.95;;;1.70;99.90;;;;;;4966602;28;20047;-33
2023/01/17 02:07:09;;;;;;;1.08;1.00;;;1.70;99.90;;;;;;4963882;28;20066;-33
2023/01/17 02:09:37;;;;;;;0.80;0.80;;;1.80;99.90;;;;;;4967066;28;20054;-33
2023/01/17 02:12:06;;;;;;;2.95;1.23;;;1.70;99.90;;;;;;4968871;28;20077;-33
2023/01/17 02:14:33;;;;;;;0.90;0.90;;;1.60;99.90;;;;;;4961307;28;20066;-33
2023/01/17 02:17:23;;;;;;;0.85;0.85;;;1.50;99.90;;;;;;4964074;28;20050;-33
2023/01/17 02:19:59;;;;;;;1.02;0.95;;;1.60;99.90;;;;;;4966459;28;20070;-33
2023/01/17 02:22:35;;;;;;;4.32;1.00;;;1.40;99.90;;;;;;4963879;28;20051;-33
2023/01/17 02:25:09;;;;;;;0.80;0.80;;;1.50;99.90;;;;;;4967667;28;20061;-33
2023/01/17 02:27:51;;;;;;;0.70;0.70;;;1.50;99.90;;;;;;4967841;28;20082;-33
2023/01/17 02:30:34;;;;;;;0.90;0.90;;;1.40;99.90;;;;;;4943373;28;20051;-33
2023/01/17 02:33:08;;;;;;;1.17;1.05;;;1.40;99.90;;;;;;4962247;28;20065;-36
2023/01/17 02:36:03;;;;;;;0.80;0.80;;;1.40;99.90;;;;;;4967362;28;20059;-33
2023/01/17 02:38:55;;;;;;;0.95;0.80;;;1.40;99.90;;;;;;4949190;28;20419;-33
2023/01/17 02:41:29;;;;;;;;;;;1.40;99.90;;;;;;4968380;28;20055;-33
2023/01/17 02:43:56;;;;;;;0.80;0.80;;;1.30;99.90;;;;;;4969117;28;20156;-33
2023/01/17 02:46:26;;;;;;;1.00;1.00;;;1.20;99.90;;;;;;4969246;28;20051;-33
2023/01/17 02:48:55;;;;;;;1.02;0.80;;;1.20;99.90;;;;;;4968610;28;20422;-33
2023/01/17 02:51:29;;;;;;;1.20;0.90;;;1.10;99.90;;;;;;4951318;28;20058;-33
2023/01/17 02:54:07;;;;;;;0.90;0.90;;;1.20;99.90;;;;;;4958788;28;20120;-33
2023/01/17 02:57:03;;;;;;;1.00;1.00;;;1.20;99.90;;;;;;4964532;28;20050;-33
2023/01/17 02:59:49;;;;;;;3.17;1.02;;;1.30;99.90;;;;;;4946394;28;20063;-33
2023/01/17 03:02:35;;;;;;;2.17;1.55;;;1.30;99.90;;;;;;4955825;28;20054;-33
2023/01/17 03:05:12;;;;;;;1.33;1.08;;;1.20;99.90;;;;;;4964657;28;20069;-33
2023/01/17 03:07:43;;;;;;;0.80;0.80;;;1.20;99.90;;;;;;4960017;28;20392;-33
2023/01/17 03:10:13;;;;;;;3.03;1.13;;;1.30;99.90;;;;;;4962956;28;20057;-33
2023/01/17 03:12:41;;;;;;;0.82;0.82;;;1.40;99.90;;;;;;4964261;28;20050;-33
2023/01/17 03:15:11;;;;;;;1.17;1.17;;;1.40;99.90;;;;;;4965962;28;20050;-34
2023/01/17 03:17:47;;;;;;;0.90;0.90;;;1.40;99.90;;;;;;4965987;28;20284;-46
2023/01/17 03:20:15;;;;;;;1.08;1.00;;;1.40;99.90;;;;;;4957563;28;20047;-46
2023/01/17 03:22:43;;;;;;;0.80;0.80;;;1.50;99.90;;;;;;4964716;28;20043;-47
2023/01/17 03:25:10;;;;;;;1.00;1.00;;;1.60;99.90;;;;;;4960612;28;20054;-47
2023/01/17 03:27:38;;;;;;;1.10;1.10;;;1.50;99.90;;;;;;4965263;28;20054;-47
2023/01/17 03:30:06;;;;;;;0.77;0.77;;;1.50;99.90;;;;;;4962018;28;20510;-45
2023/01/17 03:32:33;;;;;;;1.10;1.10;;;1.50;99.90;;;;;;4955987;28;20346;-44
2023/01/17 03:35:01;;;;;;;1.02;0.98;;;1.40;99.90;;;;;;4961541;28;20066;-45
2023/01/17 03:37:28;;;;;;;1.13;1.13;;;1.30;99.90;;;;;;4960841;28;20074;-44
2023/01/17 03:39:56;;;;;;;0.70;0.70;;;1.30;99.90;;;;;;4959701;28;20057;-45
2023/01/17 03:42:23;;;;;;;1.35;1.25;;;1.40;99.90;;;;;;4964365;28;20254;-45
2023/01/17 03:44:51;;;;;;;2.47;0.82;;;1.40;99.90;;;;;;4966623;28;20877;-45
2023/01/17 03:47:18;;;;;;;1.17;1.17;;;1.40;99.90;;;;;;4961196;28;20508;-44
2023/01/17 03:49:46;;;;;;;2.05;0.90;;;1.40;99.90;;;;;;4960626;28;20046;-45
2023/01/17 03:52:14;;;;;;;1.10;1.00;;;1.30;99.90;;;;;;4961940;28;20051;-44
2023/01/17 03:54:41;;;;;;;1.75;1.17;;;1.20;99.90;;;;;;4969426;28;20085;-44
2023/01/17 03:57:10;;;;;;;1.05;0.90;;;1.20;99.90;;;;;;4969089;28;20444;-44
2023/01/17 03:59:38;;;;;;;1.02;1.02;;;1.10;99.90;;;;;;4968716;28;20066;-44
2023/01/17 04:02:06;;;;;;;0.73;0.73;;;1.10;99.90;;;;;;4967749;28;20553;-44
2023/01/17 04:04:33;;;;;;;2.83;0.80;;;1.00;99.90;;;;;;4964073;28;20447;-44
2023/01/17 04:07:02;;;;;;;1.33;1.23;;;1.00;99.90;;;;;;4965408;28;20113;-44
2023/01/17 04:09:32;;;;;;;0.75;0.75;;;1.10;99.90;;;;;;4963439;28;20048;-44
2023/01/17 04:12:03;;;;;;;2.63;2.05;;;1.00;99.90;;;;;;4964367;28;20043;-44
2023/01/17 04:14:31;;;;;;;1.00;1.00;;;0.80;99.90;;;;;;4965576;28;20055;-44
2023/01/17 04:16:58;;;;;;;1.13;1.13;;;0.80;99.90;;;;;;4968394;28;20620;-44
2023/01/17 04:19:26;;;;;;;3.08;0.90;;;0.90;99.90;;;;;;4962775;28;20132;-44
2023/01/17 04:21:54;;;;;;;0.73;0.73;;;0.80;99.90;;;;;;4968859;28;20047;-44
2023/01/17 04:24:22;;;;;;;0.80;0.80;;;0.70;99.90;;;;;;4967598;28;20450;-44
2023/01/17 04:26:52;;;;;;;0.95;0.95;;;0.70;99.90;;;;;;4962049;28;20051;-43
2023/01/17 04:29:20;;;;;;;1.42;1.35;;;0.70;99.90;;;;;;4963903;28;20523;-44
2023/01/17 04:31:48;;;;;;;0.85;0.80;;;0.80;99.90;;;;;;4968234;28;20051;-44
2023/01/17 04:34:17;;;;;;;0.70;0.70;;;0.80;99.90;;;;;;4967530;28;20050;-34
2023/01/17 04:36:45;;;;;;;5.13;1.05;;;0.60;99.90;;;;;;4963286;28;20062;-33
2023/01/17 04:39:14;;;;;;;1.35;1.27;;;0.50;99.90;;;;;;4962595;28;20464;-33
2023/01/17 04:41:43;;;;;;;0.98;0.98;;;0.40;99.90;;;;;;4964925;28;20043;-33
2023/01/17 04:44:11;;;;;;;1.40;0.80;;;0.30;99.90;;;;;;4965456;28;20043;-33
2023/01/17 04:46:39;;;;;;;0.80;0.80;;;0.30;99.90;;;;;;4961649;28;20054;-33
2023/01/17 04:49:10;;;;;;;0.85;0.85;;;0.20;99.90;;;;;;4964969;28;20046;-33
2023/01/17 04:51:38;;;;;;;2.05;1.95;;;0.10;99.90;;;;;;4960571;28;20501;-33
2023/01/17 04:54:06;;;;;;;0.70;0.70;;;0.10;99.90;;;;;;4964048;28;20466;-33
2023/01/17 04:56:34;;;;;;;0.70;0.70;;;0.10;99.90;;;;;;4965773;28;20062;-33
2023/01/17 04:59:11;;;;;;;0.80;0.80;;;0.00;99.90;;;;;;4955441;28;20054;-33
2023/01/17 05:01:38;;;;;;;0.80;0.80;;;-0.10;99.90;;;;;;4968260;28;20069;-33
2023/01/17 05:04:06;;;;;;;0.90;0.90;;;-0.20;99.90;;;;;;4964086;28;20051;-33
2023/01/17 05:06:34;;;;;;;0.75;0.75;;;-0.40;99.90;;;;;;4965365;28;20459;-32
2023/01/17 05:09:03;;;;;;;0.93;0.93;;;-0.50;99.90;;;;;;4967667;28;20054;-33
2023/01/17 05:11:31;;;;;;;1.10;1.10;;;-0.60;99.90;;;;;;4967776;28;20051;-33
2023/01/17 05:13:59;;;;;;;2.80;0.90;;;-0.70;99.90;;;;;;4966668;28;20050;-33
2023/01/17 05:16:27;;;;;;;2.05;1.30;;;-0.80;99.90;;;;;;4962118;28;20348;-33
2023/01/17 05:18:55;;;;;;;1.00;1.00;;;-0.90;99.90;;;;;;4968904;28;20105;-33
2023/01/17 05:21:22;;;;;;;0.90;0.90;;;-1.20;99.90;;;;;;4966869;28;20080;-33
2023/01/17 05:23:50;;;;;;;1.63;1.63;;;-1.30;99.90;;;;;;4962746;28;20057;-33
2023/01/17 05:26:19;;;;;;;1.45;1.20;;;-1.30;99.90;;;;;;4968894;28;20054;-32
2023/01/17 05:28:47;;;;;;;1.00;1.00;;;-1.40;99.90;;;;;;4968806;28;20051;-33
2023/01/17 05:31:16;;;;;;;1.73;1.38;;;-1.40;99.90;;;;;;4964440;28;20055;-33
2023/01/17 05:33:43;;;;;;;2.80;1.20;;;-1.40;99.90;;;;;;4960689;28;20317;-33
2023/01/17 05:36:11;;;;;;;1.48;1.38;;;-1.50;99.90;;;;;;4962247;28;20047;-33
2023/01/17 05:38:39;;;;;;;0.95;0.95;;;-1.50;99.90;;;;;;4967528;28;20043;-34
2023/01/17 05:41:07;;;;;;;1.27;1.25;;;-1.50;99.90;;;;;;4965476;28;20047;-33
2023/01/17 05:43:35;;;;;;;0.82;0.82;;;-1.50;99.90;;;;;;4968664;28;20054;-33
2023/01/17 05:46:03;;;;;;;0.80;0.80;;;-1.50;99.90;;;;;;4963748;28;20047;-33
2023/01/17 05:48:31;;;;;;;1.95;1.00;;;-1.50;99.90;;;;;;4954371;28;20061;-33
2023/01/17 05:50:58;;;;;;;0.90;0.90;;;-1.60;99.90;;;;;;4963763;28;20351;-33
2023/01/17 05:53:26;;;;;;;1.17;1.17;;;-1.80;99.90;;;;;;4962912;28;20054;-34
2023/01/17 05:55:54;;;;;;;1.20;1.20;;;-1.90;99.90;;;;;;4967214;28;20054;-34
2023/01/17 05:58:22;;;;;;;1.23;1.10;;;-1.90;99.90;;;;;;4968439;28;20047;-34
2023/01/17 06:00:49;;;;;;;2.05;1.67;;;-1.90;99.90;;;;;;4967190;28;20055;-35
2023/01/17 06:03:17;;;;;;;0.90;0.90;;;-1.90;99.90;;;;;;4967950;28;20400;-34
2023/01/17 06:05:45;;;;;;;1.00;1.00;;;-2.00;99.90;;;;;;4968245;28;20423;-34
2023/01/17 06:08:13;;;;;;;1.00;1.00;;;-2.20;99.90;;;;;;4961715;28;20051;-34
2023/01/17 06:10:40;;;;;;;1.05;1.00;;;-2.40;99.90;;;;;;4962615;28;20216;-34
2023/01/17 06:13:14;;;;;;;1.00;1.00;;;-2.30;99.90;;;;;;4962450;28;20522;-35
2023/01/17 06:15:42;;;;;;;2.95;1.20;;;-2.30;99.90;;;;;;4961985;28;20061;-35
2023/01/17 06:18:12;;;;;;;1.50;1.02;;;-2.30;99.90;;;;;;4962188;28;20061;-35
2023/01/17 06:20:42;;;;;;;0.93;0.93;;;-2.30;99.90;;;;;;4961232;28;20050;-35
2023/01/17 06:23:12;;;;;;;5.78;1.13;;;-2.30;99.90;;;;;;4962208;28;20062;-36
2023/01/17 06:25:42;;;;;;;1.13;1.13;;;-2.20;99.90;;;;;;4963691;28;20058;-35
2023/01/17 06:28:15;;;;;;;0.95;0.95;;;-2.20;99.90;;;;;;4965605;28;20497;-36
2023/01/17 06:30:42;;;;;;;3.85;3.50;;;-2.20;99.90;;;;;;4960503;28;20062;-35
2023/01/17 06:33:11;;;;;;;3.60;2.40;;;-2.10;99.90;;;;;;4959083;28;20062;-35
2023/01/17 06:35:43;;;;;;;3.03;2.83;;;-2.10;99.90;;;;;;4961413;28;20057;-35
2023/01/17 06:38:10;;;;;;;1.60;1.40;;;-2.20;99.90;;;;;;4961167;28;20058;-35
2023/01/17 06:40:38;;;;;;;1.42;1.42;;;-2.20;99.90;;;;;;4962668;28;20429;-36
2023/01/17 06:43:05;;;;;;;1.20;1.10;;;-2.20;99.90;;;;;;4960153;28;20493;-35
2023/01/17 06:45:34;;;;;;;0.80;0.80;;;-2.20;99.90;;;;;;4965981;28;20055;-35
2023/01/17 06:48:03;;;;;;;1.48;1.38;;;-2.30;99.90;;;;;;4961306;28;20039;-36
2023/01/17 06:50:32;;;;;;;1.77;1.67;;;-2.20;99.90;;;;;;4966131;28;20065;-36
2023/01/17 06:53:05;;;;;;;2.03;1.48;;;-2.20;99.90;;;;;;4960374;28;20062;-35
2023/01/17 06:55:33;;;;;;;1.10;1.10;;;-2.20;99.90;;;;;;4961190;28;20388;-36
2023/01/17 06:58:04;;;;;;;1.27;1.27;;;-2.30;99.90;;;;;;4961709;28;20070;-36
2023/01/17 07:00:33;;;;;;;1.00;1.00;;;-2.30;99.90;;;;;;4965187;28;20051;-36
2023/01/17 07:03:01;;;;;;;1.90;1.80;;;-2.60;99.90;;;;;;4962822;28;20518;-35
2023/01/17 07:05:29;;;;;;;3.00;2.55;;;-2.70;99.90;;;;;;4964379;28;20061;-36
2023/01/17 07:07:57;;;;;;;4.43;3.22;;;-2.70;99.90;;;;;;4964298;28;20062;-36
2023/01/17 07:10:24;;;;;;;6.15;5.65;;;-2.70;99.90;;;;;;4960530;28;20404;-37
2023/01/17 07:12:58;;;;;;;4.03;2.10;;;-2.80;99.90;;;;;;4958376;28;20421;-36
2023/01/17 07:15:26;;;;;;;1.80;1.42;;;-2.80;99.90;;;;;;4955896;28;20514;-36
2023/01/17 07:17:53;;;;;;;1.83;1.73;;;-2.90;99.90;;;;;;4960727;28;20053;-35
2023/01/17 07:20:21;;;;;;;1.05;1.05;;;-2.90;99.90;;;;;;4958524;28;20082;-35
2023/01/17 07:22:48;;;;;;;1.00;1.00;;;-3.00;99.90;;;;;;4959397;28;20051;-35
2023/01/17 07:25:16;;;;;;;3.72;1.60;;;-2.90;99.90;;;;;;4960608;28;20047;-36
2023/01/17 07:27:44;;;;;;;1.60;1.50;;;-2.80;99.90;;;;;;4955951;28;20082;-36
2023/01/17 07:30:12;;;;;;;1.55;1.48;;;-2.70;99.90;;;;;;4958261;28;20047;-35
2023/01/17 07:32:40;;;;;;;1.65;1.55;;;-2.70;99.90;;;;;;4961209;28;20215;-35
2023/01/17 07:35:08;;;;;;;1.98;1.60;;;-2.60;99.90;;;;;;4961076;28;20458;-35
2023/01/17 07:37:35;;;;;;;3.78;1.70;;;-2.60;99.90;;;;;;4952123;28;20359;-35
2023/01/17 07:40:03;;;;;;;2.13;2.03;;;-2.60;99.90;;;;;;4953967;28;20148;-36
2023/01/17 07:42:31;;;;;;;1.38;1.38;;;-2.60;99.90;;;;;;4957941;28;20197;-35
2023/01/17 07:44:59;;;;;;;2.88;2.05;;;-2.70;99.90;;;;;;4949596;28;20055;-36
2023/01/17 07:47:27;;;;;;;1.40;1.40;;;-2.60;99.90;;;;;;4955092;28;20078;-36
2023/01/17 07:49:54;;;;;;;1.20;1.20;;;-2.60;99.90;;;;;;4954087;28;20081;-36
2023/01/17 07:52:22;;;;;;;1.70;1.60;;;-2.60;99.90;;;;;;4952253;28;20043;-36
2023/01/17 07:54:50;;;;;;;1.65;1.55;;;-2.60;99.90;;;;;;4950727;28;20047;-36
2023/01/17 07:57:17;;;;;;;2.45;2.35;;;-2.50;99.90;;;;;;4952772;28;20440;-36
2023/01/17 07:59:45;;;;;;;1.90;1.83;;;-2.30;99.90;;;;;;4955152;28;20577;-35
2023/01/17 08:02:19;;;;;;;1.83;1.73;;;-2.10;99.90;;;;;;4952956;28;20074;-35
2023/01/17 08:04:48;;;;;;;4.95;4.28;;;-1.90;99.90;;;;;;4952737;28;20440;-36
2023/01/17 08:07:15;;;;;;;2.08;1.95;;;-2.00;99.90;;;;;;4954115;28;20062;-35
2023/01/17 08:09:48;;;;;;;4.75;3.25;;;-2.00;99.90;;;;;;4950792;28;20042;-35
2023/01/17 08:12:15;;;;;;;3.03;2.42;;;-2.00;99.90;;;;;;4955484;28;20058;-36
2023/01/17 08:14:43;;;;;;;2.88;1.95;;;-2.00;99.90;;;;;;4953004;28;20059;-36
2023/01/17 08:17:13;;;;;;;35.63;20.70;;;-2.00;99.90;;;;;;4954940;28;20054;-36
2023/01/17 08:19:41;;;;;;;3.75;3.45;;;-1.90;99.90;;;;;;4945464;28;20043;-35
2023/01/17 08:22:08;;;;;;;2.58;2.28;;;-1.80;99.90;;;;;;4957485;28;20047;-36
2023/01/17 08:24:36;;;;;;;5.10;3.00;;;-1.70;99.90;;;;;;4948752;28;20047;-35
2023/01/17 08:27:04;;;;;;;2.03;1.90;;;-1.60;99.90;;;;;;4955471;28;20178;-35
2023/01/17 08:29:31;;;;;;;1.77;1.67;;;-1.60;99.90;;;;;;4958894;28;20055;-35
2023/01/17 08:31:59;;;;;;;2.55;2.35;;;-1.50;99.90;;;;;;4959279;28;20051;-36
2023/01/17 08:34:27;;;;;;;3.17;2.75;;;-1.50;99.90;;;;;;4954343;28;20055;-35
2023/01/17 08:36:54;;;;;;;2.45;2.00;;;-1.40;99.90;;;;;;4959309;28;20054;-35
2023/01/17 08:39:22;;;;;;;2.15;1.90;;;-1.30;99.90;;;;;;4951666;28;20125;-36
2023/01/17 08:41:49;;;;;;;3.60;2.50;;;-1.10;99.90;;;;;;4960294;28;20563;-35
2023/01/17 08:44:18;;;;;;;4.32;1.92;;;-1.00;99.90;;;;;;4961080;28;20054;-36
2023/01/17 08:46:46;;;;;;;4.93;1.67;;;-0.80;99.90;;;;;;4963314;28;20507;-36
2023/01/17 08:49:13;;;;;;;2.25;2.15;;;-0.70;99.90;;;;;;4954321;28;20540;-36
2023/01/17 08:51:41;;;;;;;2.55;2.35;;;-0.50;99.90;;;;;;4958321;28;20050;-36
2023/01/17 08:54:11;;;;;;;4.43;4.03;;;-0.40;99.90;;;;;;4954805;28;20051;-36
2023/01/17 08:56:40;;;;;;;20.92;10.70;;;-0.20;99.90;;;;;;4953694;28;20051;-35
2023/01/17 08:59:12;;;;;;;13.30;9.18;;;-0.10;99.90;;;;;;4958028;28;20066;-35
2023/01/17 09:01:41;;;;;;;;;;;0.10;99.90;;;;;;4956409;28;20089;-35
2023/01/17 09:04:09;;;;;;;2.38;2.15;;;0.10;99.90;;;;;;4960213;28;19938;-35
2023/01/17 09:06:38;;;;;;;2.35;1.40;;;0.10;99.90;;;;;;4960551;28;20054;-36
2023/01/17 09:09:07;;;;;;;2.17;2.08;;;0.10;99.90;;;;;;4959794;28;20058;-36
2023/01/17 09:11:35;;;;;;;3.13;1.73;;;0.20;99.90;;;;;;4962651;28;20062;-35
2023/01/17 09:14:03;;;;;;;8.70;3.70;;;0.20;99.90;;;;;;4962260;28;20510;-36
2023/01/17 09:16:32;;;;;;;4.20;3.53;;;0.40;99.90;;;;;;4962924;28;20051;-36
2023/01/17 09:18:59;;;;;;;2.28;2.13;;;0.50;99.90;;;;;;4948930;28;20090;-36
2023/01/17 09:21:27;;;;;;;4.22;2.42;;;0.60;99.90;;;;;;4952655;28;20051;-36
2023/01/17 09:23:55;;;;;;;5.30;2.38;;;0.70;99.90;;;;;;4950251;28;20055;-36
2023/01/17 09:26:28;;;;;;;2.90;2.00;;;0.70;99.90;;;;;;4962776;28;20054;-36
2023/01/17 09:28:57;;;;;;;3.88;2.05;;;0.60;99.90;;;;;;4955521;28;20054;-36
2023/01/17 09:31:25;;;;;;;4.05;2.72;;;0.60;99.90;;;;;;4950611;28;20061;-36
2023/01/17 09:33:55;;;;;;;2.45;2.25;;;0.70;99.90;;;;;;4954999;28;20043;-38
2023/01/17 09:36:32;;;;;;;3.65;3.35;;;0.90;99.90;;;;;;4958613;28;20053;-36
2023/01/17 09:39:01;;;;;;;2.00;1.90;;;1.00;99.90;;;;;;4954881;28;20046;-36
2023/01/17 09:41:40;;;;;;;3.58;2.47;;;1.20;99.90;;;;;;4958693;28;20066;-36
2023/01/17 09:44:14;;;;;;;3.78;2.30;;;1.90;99.90;;;;;;4957033;28;20922;-36
2023/01/17 09:46:45;;;;;;;5.00;2.58;;;2.80;99.90;;;;;;4961599;28;20423;-36
2023/01/17 09:49:38;;;;;;;3.15;2.85;;;3.30;99.90;;;;;;4959268;28;20427;-36
2023/01/17 09:52:08;;;;;;;4.95;2.90;;;3.20;99.90;;;;;;4955968;28;20051;-36
2023/01/17 09:54:39;;;;;;;2.38;2.20;;;2.90;99.90;;;;;;4961056;28;20070;-35
2023/01/17 09:57:48;;;;;;;2.57;2.27;;;2.70;99.90;;;;;;4962167;28;20546;-35
2023/01/17 10:00:43;;;;;;;5.15;3.03;;;2.90;99.90;;;;;;4949323;28;20066;-35
2023/01/17 10:03:34;;;;;;;2.75;2.00;;;4.00;99.90;;;;;;4961018;28;20054;-35
2023/01/17 10:06:21;;;;;;;2.33;2.15;;;4.10;99.90;;;;;;4976923;28;20046;-34
2023/01/17 10:09:26;;;;;;;3.67;3.42;;;3.70;99.90;;;;;;4967178;28;20054;-35
2023/01/17 10:12:17;;;;;;;4.22;3.60;;;3.40;99.90;;;;;;4973952;28;20046;-34
2023/01/17 10:15:07;;;;;;;2.13;1.88;;;3.30;99.90;;;;;;4975887;28;20513;-35
2023/01/17 10:18:08;;;;;;;2.83;2.47;;;3.20;99.90;;;;;;4975608;28;20059;-34
2023/01/17 10:21:16;;;;;;;1.85;1.75;;;3.00;99.90;;;;;;4975631;28;20057;-34
2023/01/17 10:24:22;;;;;;;1.73;1.63;;;2.80;99.90;;;;;;4973733;28;20050;-34
2023/01/17 10:26:55;;;;;;;2.10;2.00;;;2.70;99.90;;;;;;4972377;28;20486;-34
2023/01/17 10:29:28;;;;;;;11.07;6.30;;;2.80;99.90;;;;;;4982495;28;20054;-33
2023/01/17 10:32:01;;;;;;;1.98;1.88;;;2.80;99.90;;;;;;4979247;28;20054;-33
2023/01/17 10:34:49;;;;;;;5.32;3.13;;;3.00;99.90;;;;;;4978256;28;20404;-33
2023/01/17 10:37:47;;;;;;;3.92;2.80;;;3.10;99.90;;;;;;4983116;28;20096;-34
2023/01/17 10:40:23;;;;;;;4.35;3.53;;;3.10;99.90;;;;;;4976800;28;20053;-33
2023/01/17 10:43:03;;;;;;;2.90;2.38;;;3.20;99.90;;;;;;4975869;28;20392;-33
2023/01/17 10:45:39;;;;;;;5.85;2.58;;;3.10;99.90;;;;;;4973785;28;20050;-33
2023/01/17 10:48:09;;;;;;;2.40;2.20;;;3.00;99.90;;;;;;4979464;28;20414;-33
2023/01/17 10:51:00;;;;;;;2.53;1.80;;;3.00;99.90;;;;;;4972437;28;20054;-33
2023/01/17 10:54:00;;;;;;;3.33;1.00;;;2.90;99.90;;;;;;4955182;28;20503;-33
2023/01/17 10:56:30;;;;;;;0.80;0.80;;;2.90;99.90;;;;;;4973571;28;20222;-33
2023/01/17 10:59:25;;;;;;;2.08;1.25;;;2.80;99.90;;;;;;4977524;28;20046;-33
2023/01/17 11:01:53;;;;;;;1.58;1.50;;;2.70;99.90;;;;;;4983646;28;20058;-33
2023/01/17 11:04:31;;;;;;;1.40;1.40;;;2.70;99.90;;;;;;4981255;28;20062;-33
2023/01/17 11:07:19;;;;;;;3.45;1.17;;;2.60;99.90;;;;;;4979921;28;20410;-33
2023/01/17 11:09:53;;;;;;;0.93;0.93;;;2.70;99.90;;;;;;4980019;28;20501;-32
2023/01/17 11:12:34;;;;;;;0.88;0.88;;;2.70;99.90;;;;;;4975536;28;20042;-33
2023/01/17 11:15:08;;;;;;;0.90;0.90;;;2.80;99.90;;;;;;4980467;28;20046;-33
2023/01/17 11:18:09;;;;;;;1.45;1.35;;;2.80;99.90;;;;;;4974501;28;20081;-33
2023/01/17 11:20:41;;;;;;;4.40;1.50;;;2.80;99.90;;;;;;4869536;29;20061;-36
2023/01/17 11:23:30;;;;;;;1.13;1.13;;;2.80;99.90;;;;;;4891509;29;20565;-34
2023/01/17 11:26:01;;;;;;;1.30;1.20;;;2.90;99.90;;;;;;4891897;29;20055;-34
2023/01/17 11:28:32;;;;;;;2.37;1.13;;;3.00;99.90;;;;;;4891620;29;20544;-34
2023/01/17 11:31:06;;;;;;;1.27;1.17;;;3.00;99.90;;;;;;4894079;29;20465;-34
2023/01/17 11:33:44;;;;;;;1.27;1.25;;;3.10;99.90;;;;;;4889789;29;20537;-34
2023/01/17 11:36:26;;;;;;;1.00;1.00;;;3.20;99.90;;;;;;4878966;29;20128;-33
2023/01/17 11:39:01;;;;;;;1.13;1.10;;;3.20;99.90;;;;;;4887013;29;20059;-34
2023/01/17 11:41:40;;;;;;;1.60;1.50;;;3.20;99.90;;;;;;4896062;29;20066;-34
2023/01/17 11:44:25;;;;;;;1.83;1.40;;;3.20;99.90;;;;;;4893144;29;20944;-34
2023/01/17 11:47:06;;;;;;;2.83;1.73;;;3.10;99.90;;;;;;4895294;29;20071;-34
2023/01/17 11:49:34;;;;;;;2.28;2.13;;;3.20;99.90;;;;;;4896277;29;20044;-34
2023/01/17 11:52:32;;;;;;;1.20;1.10;;;3.20;99.90;;;;;;4943901;28;20514;-34
2023/01/17 11:55:00;;;;;;;1.10;1.10;;;3.20;99.90;;;;;;4975243;28;20068;-35
2023/01/17 11:57:33;;;;;;;1.30;1.30;;;3.20;99.90;;;;;;4978047;28;20050;-35
2023/01/17 12:00:33;;;;;;;1.42;1.40;;;3.30;99.90;;;;;;4969636;28;20058;-34
2023/01/17 12:03:30;;;;;;;1.27;1.17;;;3.30;99.90;;;;;;4975958;28;20411;-34
2023/01/17 12:06:10;;;;;;;1.20;1.10;;;3.40;99.90;;;;;;4974478;28;20097;-34
2023/01/17 12:09:21;;;;;;;0.90;0.90;;;3.30;99.90;;;;;;4974313;28;20404;-34
2023/01/17 12:15:10;;;;;;;0.93;0.88;;;3.30;99.90;;;;;;4973635;28;20646;-33
2023/01/17 12:17:43;;;;;;;1.27;0.93;;;3.30;99.90;;;;;;4954451;28;20073;-33
2023/01/17 12:20:48;;;;;;;0.80;0.80;;;3.30;99.90;;;;;;4973341;28;20066;-33
2023/01/17 12:23:47;;;;;;;0.88;0.88;;;3.30;99.90;;;;;;4956902;28;20054;-33
2023/01/17 12:27:06;;;;;;;1.00;1.00;;;3.30;99.90;;;;;;4971297;28;20046;-33
2023/01/17 12:30:06;;;;;;;1.48;1.00;;;3.30;99.90;;;;;;4921025;28;20383;-33
2023/01/17 12:33:11;;;;;;;1.10;1.10;;;3.20;99.90;;;;;;4918328;28;20326;-33
2023/01/17 12:35:56;;;;;;;1.42;1.33;;;3.30;99.90;;;;;;4923989;28;20058;-33
2023/01/17 12:38:46;;;;;;;4.20;1.17;;;3.30;99.90;;;;;;4940848;28;20053;-33
2023/01/17 12:41:22;;;;;;;1.33;1.23;;;3.20;99.90;;;;;;4973905;28;20043;-33
2023/01/17 12:43:55;;;;;;;2.90;1.00;;;3.20;99.90;;;;;;4975902;28;20057;-33
2023/01/17 12:46:33;;;;;;;1.17;1.17;;;3.20;99.90;;;;;;4973420;28;20392;-33
2023/01/17 12:49:42;;;;;;;1.10;1.10;;;3.20;99.90;;;;;;4976326;28;20042;-34
2023/01/17 12:52:23;;;;;;;1.50;1.17;;;3.20;99.90;;;;;;4973309;28;20049;-33
2023/01/17 12:55:21;;;;;;;1.43;1.27;;;3.20;99.90;;;;;;4976971;28;20280;-33
2023/01/17 12:57:59;;;;;;;1.20;1.20;;;3.20;99.90;;;;;;4934814;28;20050;-32
2023/01/17 13:00:28;;;;;;;1.15;1.10;;;3.20;99.90;;;;;;4971950;28;20425;-33
2023/01/17 13:03:28;;;;;;;0.70;0.70;;;3.20;99.90;;;;;;4974555;28;20096;-33
2023/01/17 13:05:58;;;;;;;1.05;1.05;;;3.20;99.90;;;;;;4976636;28;20218;-33
2023/01/17 13:08:35;;;;;;;1.95;1.65;;;3.20;99.90;;;;;;4969433;28;20249;-33
2023/01/17 13:11:34;;;;;;;3.75;1.50;;;3.10;99.90;;;;;;4974875;28;20050;-33
2023/01/17 13:14:07;;;;;;;2.58;1.98;;;3.10;99.90;;;;;;4973600;28;20035;-44
2023/01/17 13:16:40;;;;;;;1.05;0.98;;;3.10;99.90;;;;;;4976293;28;20066;-44
2023/01/17 13:19:39;;;;;;;1.10;1.10;;;3.10;99.90;;;;;;4977079;28;20054;-44
2023/01/17 13:22:16;;;;;;;3.50;1.30;;;3.10;99.90;;;;;;4972678;28;20070;-45
2023/01/17 13:25:11;;;;;;;1.10;1.10;;;3.00;99.90;;;;;;4979722;28;20351;-44
2023/01/17 13:27:54;;;;;;;0.88;0.88;;;3.00;99.90;;;;;;4975560;28;20054;-44
2023/01/17 13:31:12;;;;;;;4.15;1.50;;;3.00;99.90;;;;;;4924960;29;20059;-45
2023/01/17 13:34:18;;;;;;;1.58;1.48;;;3.00;99.90;;;;;;4934171;29;20053;-45
2023/01/17 13:37:01;;;;;;;6.07;1.35;;;3.00;99.90;;;;;;4872435;29;20056;-44
2023/01/17 13:39:53;;;;;;;1.50;1.50;;;3.00;99.90;;;;;;4869098;29;20061;-45
2023/01/17 13:42:29;;;;;;;1.13;1.10;;;2.90;99.90;;;;;;4918913;29;20051;-44
2023/01/17 13:44:58;;;;;;;1.30;1.20;;;2.90;99.90;;;;;;4937030;28;20059;-45
2023/01/17 13:47:26;;;;;;;1.00;1.00;;;2.80;99.90;;;;;;4938303;29;20615;-44
2023/01/17 13:49:55;;;;;;;1.40;1.25;;;2.80;99.90;;;;;;4932161;28;20496;-45
2023/01/17 13:52:23;;;;;;;1.30;1.20;;;2.80;99.90;;;;;;4937700;29;20095;-44
2023/01/17 13:54:59;;;;;;;1.73;1.63;;;2.80;99.90;;;;;;4939819;29;20082;-44
2023/01/17 13:57:48;;;;;;;1.55;1.45;;;2.80;99.90;;;;;;4938313;29;20478;-44
2023/01/17 14:00:44;;;;;;;1.63;1.40;;;2.80;99.90;;;;;;4931227;29;20044;-43
2023/01/17 14:03:11;;;;;;;1.65;1.55;;;2.80;99.90;;;;;;4981318;28;20057;-44
2023/01/17 14:05:39;;;;;;;1.08;1.08;;;2.80;99.90;;;;;;4974880;28;20042;-44
2023/01/17 14:08:19;;;;;;;1.42;1.33;;;2.80;99.90;;;;;;4980741;28;20058;-44
2023/01/17 14:10:51;;;;;;;1.58;1.50;;;2.90;99.90;;;;;;4979540;28;20430;-44
2023/01/17 14:13:24;;;;;;;;;;;3.00;99.90;;;;;;4977434;28;20051;-44
2023/01/17 14:15:52;;;;;;;1.67;1.58;;;3.10;99.90;;;;;;4976059;28;19932;-45
2023/01/17 14:18:36;;;;;;;2.83;1.70;;;3.20;99.90;;;;;;4974813;28;20279;-44
2023/01/17 14:21:22;;;;;;;1.42;1.33;;;3.30;99.90;;;;;;4975555;28;20126;-45
2023/01/17 14:24:09;;;;;;;1.50;1.38;;;3.30;99.90;;;;;;4977769;28;20046;-44
2023/01/17 14:26:48;;;;;;;0.80;0.80;;;3.20;99.90;;;;;;4978864;28;20047;-44
2023/01/17 14:29:49;;;;;;;1.05;1.05;;;3.00;99.90;;;;;;4972791;28;20625;-44
2023/01/17 14:32:26;;;;;;;1.08;1.08;;;2.90;99.90;;;;;;4974740;28;20039;-44
2023/01/17 14:34:56;;;;;;;1.27;1.25;;;2.70;99.90;;;;;;4977295;28;20390;-44
2023/01/17 14:37:46;;;;;;;5.00;1.58;;;2.60;99.90;;;;;;4980031;28;20054;-45
2023/01/17 14:40:24;;;;;;;0.98;0.98;;;2.60;99.90;;;;;;4971563;28;20073;-44
2023/01/17 14:43:05;;;;;;;1.10;1.10;;;2.50;99.90;;;;;;4974008;28;20527;-44
2023/01/17 14:45:34;;;;;;;0.95;0.95;;;2.50;99.90;;;;;;4970353;28;20053;-45
2023/01/17 14:48:05;;;;;;;3.63;1.40;;;2.50;99.90;;;;;;4974829;28;20074;-44
2023/01/17 14:50:38;;;;;;;1.63;1.52;;;2.50;99.90;;;;;;4972494;28;20054;-44
2023/01/17 14:53:12;;;;;;;1.33;1.27;;;2.40;99.90;;;;;;4978578;28;20054;-45